Terminal Aerodrome Forecast
Issued by NWS

Home | Current Version | Previous Version | Text Only | Print | Product List | Glossary On
Versions: 1 2 3 4 5 6 7 8 9 10 11 12 13 14 15 16 17 18 19 20 21 22 23 24 25 26 27 28 29 30 31 32 33 34 35
000
FTUS43 KMKX 231254 AAA
TAFUES
TAF AMD
KUES 231254Z 2313/2412 00000KT 1/2SM FG SCT005
     FM231400 VRB04KT 5SM BR BKN020
     FM231500 VRB04KT P6SM SCT110
     FM232200 11004KT P6SM VCTS SCT060CB BKN250
     FM240700 VRB03KT 5SM TSRA BR BKN060CB
     FM240900 19004KT 3SM +TSRA BR BKN060CB
     FM241100 20004KT 5SM TSRA BR BKN060CB=

USA.gov is the U.S. government's official web portal to all federal, state and local government web resources and services.